Time;durP1;ratioP1;P1;durP2;ratioP2;P2;SDS_P1;SDS_P2;PMS_P1;PMS_P2;Temp;Humidity;BMP_temperature;BMP_pressure;BME280_temperature;BME280_humidity;BME280_pressure;Samples;Min_cycle;Max_cycle;Signal;HPM_P1;HPM_P2
2022/03/28 00:01:10;;;;;;;32.58;14.13;;;;;;;4.66;100.00;102675.03;5266976;28;20020;-77
2022/03/28 00:03:40;;;;;;;32.38;13.27;;;;;;;4.62;100.00;102670.84;5266772;28;20031;-77
2022/03/28 00:06:11;;;;;;;33.47;13.05;;;;;;;4.56;100.00;102669.38;5265768;28;20077;-77
2022/03/28 00:08:41;;;;;;;31.63;12.57;;;;;;;4.52;100.00;102659.84;5266608;28;20032;-77
2022/03/28 00:11:12;;;;;;;34.95;14.48;;;;;;;4.50;100.00;102658.22;5266486;28;20118;-77
2022/03/28 00:13:44;;;;;;;34.55;14.25;;;;;;;4.46;100.00;102657.50;5266548;28;20168;-77
2022/03/28 00:16:14;;;;;;;32.20;13.85;;;;;;;4.44;100.00;102664.72;5260498;28;20020;-77
2022/03/28 00:18:45;;;;;;;32.55;13.27;;;;;;;4.45;100.00;102654.94;5266655;28;20028;-77
2022/03/28 00:21:15;;;;;;;34.35;14.60;;;;;;;4.44;100.00;102648.78;5266283;28;20107;-77
2022/03/28 00:23:46;;;;;;;34.72;13.15;;;;;;;4.49;100.00;102648.53;5266315;28;20028;-77
2022/03/28 00:26:17;;;;;;;32.97;14.27;;;;;;;4.53;100.00;102647.44;5247836;28;20016;-77
2022/03/28 00:28:47;;;;;;;32.85;14.43;;;;;;;4.55;100.00;102642.88;5266341;28;20059;-77
2022/03/28 00:31:17;;;;;;;33.13;13.82;;;;;;;4.57;100.00;102647.19;5266296;28;20047;-77
2022/03/28 00:33:48;;;;;;;34.03;14.90;;;;;;;4.51;100.00;102643.97;5266404;28;20035;-77
2022/03/28 00:36:19;;;;;;;36.58;14.20;;;;;;;4.47;100.00;102642.41;5265437;28;20024;-77
2022/03/28 00:38:51;;;;;;;36.35;13.68;;;;;;;4.48;100.00;102623.75;5266137;28;20410;-77
2022/03/28 00:41:21;;;;;;;36.90;15.25;;;;;;;4.55;100.00;102629.59;5253186;28;20024;-77
2022/03/28 00:44:08;;;;;;;36.08;14.35;;;;;;;4.59;100.00;102626.69;5266321;28;20364;-77
2022/03/28 00:46:40;;;;;;;37.03;14.95;;;;;;;4.59;100.00;102624.00;5265845;28;20399;-77
2022/03/28 00:49:10;;;;;;;31.85;14.02;;;;;;;4.53;100.00;102612.88;5266111;28;20028;-77
2022/03/28 00:51:41;;;;;;;32.72;15.75;;;;;;;4.48;100.00;102621.09;5266410;28;20028;-77
2022/03/28 00:54:11;;;;;;;32.20;13.65;;;;;;;4.41;100.00;102612.56;5265550;28;20551;-77
2022/03/28 00:56:45;;;;;;;37.45;13.70;;;;;;;4.41;100.00;102611.72;5266198;28;20024;-77
2022/03/28 00:59:16;;;;;;;32.10;12.85;;;;;;;4.43;100.00;102609.00;5265810;28;20020;-77
2022/03/28 01:01:46;;;;;;;34.20;14.35;;;;;;;4.50;100.00;102610.38;5265949;28;20031;-77
2022/03/28 01:04:17;;;;;;;33.80;14.20;;;;;;;4.48;100.00;102604.28;5265894;28;20027;-77
2022/03/28 01:06:48;;;;;;;33.63;14.40;;;;;;;4.38;100.00;102606.59;5266370;28;20035;-77
2022/03/28 01:09:18;;;;;;;33.95;13.68;;;;;;;4.29;100.00;102604.44;5268114;28;20103;-77
2022/03/28 01:11:52;;;;;;;34.22;13.00;;;;;;;4.28;100.00;102603.56;5269617;28;20446;-77
2022/03/28 01:14:37;;;;;;;36.80;15.00;;;;;;;4.28;100.00;102600.91;5261887;28;20028;-77
2022/03/28 01:20:09;;;;;;;36.50;13.40;;;;;;;4.19;100.00;102596.09;5269481;28;20124;-77
2022/03/28 01:22:41;;;;;;;34.08;14.00;;;;;;;4.20;100.00;102596.94;5269705;28;20024;-77
2022/03/28 01:25:11;;;;;;;33.83;14.15;;;;;;;4.18;100.00;102597.03;5269158;28;20100;-77
2022/03/28 01:27:50;;;;;;;36.80;14.70;;;;;;;4.10;100.00;102592.13;5270068;28;20051;-77
2022/03/28 01:30:22;;;;;;;28.55;12.90;;;;;;;4.04;100.00;102583.63;5251236;28;20078;-77
2022/03/28 01:32:53;;;;;;;32.92;13.45;;;;;;;3.98;100.00;102584.81;5269549;28;20391;-77
2022/03/28 01:35:26;;;;;;;33.88;13.90;;;;;;;3.96;100.00;102575.19;5268950;28;20027;-77
2022/03/28 01:37:58;;;;;;;31.40;13.30;;;;;;;3.93;100.00;102568.28;5269466;28;20497;-77
2022/03/28 01:40:29;;;;;;;37.90;14.68;;;;;;;3.88;100.00;102567.66;5255698;28;20052;-77
2022/03/28 01:43:00;;;;;;;36.00;14.93;;;;;;;3.80;100.00;102565.38;5261099;28;20029;-77
2022/03/28 01:45:31;;;;;;;37.72;14.60;;;;;;;3.72;100.00;102570.25;5263557;28;20107;-77
2022/03/28 01:48:03;;;;;;;34.25;14.32;;;;;;;3.69;100.00;102561.59;5269196;28;20165;-77
2022/03/28 01:50:35;;;;;;;36.88;14.60;;;;;;;3.67;100.00;102563.47;5269013;28;20541;-77
2022/03/28 01:53:06;;;;;;;29.23;13.70;;;;;;;3.63;100.00;102560.13;5269020;28;20088;-77
2022/03/28 01:55:39;;;;;;;39.67;14.35;;;;;;;3.60;100.00;102554.94;5268370;28;20024;-77
2022/03/28 01:58:09;;;;;;;32.50;14.32;;;;;;;3.59;100.00;102555.91;5269242;28;20034;-77
2022/03/28 02:00:40;;;;;;;37.33;15.23;;;;;;;3.59;100.00;102558.56;5269001;28;20020;-77
2022/03/28 02:03:11;;;;;;;41.10;14.88;;;;;;;3.55;100.00;102562.28;5269317;28;20028;-77
2022/03/28 02:05:42;;;;;;;36.05;13.05;;;;;;;3.56;100.00;102566.66;5268104;28;20059;-77
2022/03/28 02:08:12;;;;;;;41.17;15.98;;;;;;;3.58;100.00;102556.84;5268818;28;20544;-77
2022/03/28 02:10:43;;;;;;;43.28;15.90;;;;;;;3.56;100.00;102553.38;5250714;28;20013;-77
2022/03/28 02:13:14;;;;;;;37.90;14.45;;;;;;;3.57;100.00;102558.66;5268818;28;20053;-77
2022/03/28 02:15:44;;;;;;;34.33;14.10;;;;;;;3.54;100.00;102553.47;5243703;28;20544;-77
2022/03/28 02:18:15;;;;;;;33.10;13.65;;;;;;;3.50;100.00;102551.91;5268554;28;20129;-77
2022/03/28 02:20:45;;;;;;;38.08;15.02;;;;;;;3.57;100.00;102563.09;5250351;28;20027;-77
2022/03/28 02:23:16;;;;;;;36.53;13.48;;;;;;;3.63;100.00;102546.84;5268413;28;20077;-77
2022/03/28 02:25:47;;;;;;;34.90;14.55;;;;;;;3.57;100.00;102541.88;5268028;28;20192;-77
2022/03/28 02:28:17;;;;;;;37.55;13.73;;;;;;;3.47;100.00;102548.59;5268447;28;20039;-77
2022/03/28 02:30:48;;;;;;;39.75;14.60;;;;;;;3.33;100.00;102547.47;5267916;28;20095;-77
2022/03/28 02:33:18;;;;;;;29.75;13.55;;;;;;;3.24;100.00;102547.09;5270884;28;20024;-77
2022/03/28 02:35:49;;;;;;;30.63;11.88;;;;;;;3.00;100.00;102541.22;5258186;28;20035;-78
2022/03/28 02:38:20;;;;;;;30.60;13.77;;;;;;;2.87;100.00;102534.81;5268652;28;20074;-76
2022/03/28 02:40:50;;;;;;;37.30;14.80;;;;;;;2.80;100.00;102526.28;5254046;28;20123;-75
2022/03/28 02:43:23;;;;;;;39.40;14.45;;;;;;;2.79;100.00;102525.44;5267969;28;20044;-76
2022/03/28 02:45:53;;;;;;;38.60;15.50;;;;;;;2.79;100.00;102527.22;5267316;28;20103;-76
2022/03/28 02:48:24;;;;;;;37.42;14.85;;;;;;;2.75;100.00;102513.25;5267869;28;20115;-76
2022/03/28 02:50:54;;;;;;;45.20;15.38;;;;;;;2.72;100.00;102512.56;5249873;28;20016;-76
2022/03/28 02:53:24;;;;;;;40.65;15.43;;;;;;;2.70;100.00;102515.28;5268456;28;20063;-76
2022/03/28 02:55:55;;;;;;;41.83;16.15;;;;;;;2.66;100.00;102503.13;5268572;28;20060;-76
2022/03/28 02:58:25;;;;;;;39.08;13.80;;;;;;;2.52;100.00;102505.59;5251366;28;20027;-76
2022/03/28 03:00:56;;;;;;;36.88;13.93;;;;;;;2.42;100.00;102510.47;5267769;28;20161;-76
2022/03/28 03:03:27;;;;;;;38.42;15.30;;;;;;;2.37;100.00;102508.97;5267654;28;20482;-76
2022/03/28 03:05:57;;;;;;;41.67;16.65;;;;;;;2.47;100.00;102512.88;5267422;28;20467;-76
2022/03/28 03:08:28;;;;;;;42.63;15.07;;;;;;;2.47;100.00;102508.44;5267738;28;20063;-76
2022/03/28 03:10:58;;;;;;;39.35;15.07;;;;;;;2.48;100.00;102504.84;5267741;28;20043;-76
2022/03/28 03:13:29;;;;;;;44.38;15.65;;;;;;;2.50;100.00;102504.78;5267737;28;20023;-76
2022/03/28 03:15:59;;;;;;;48.10;18.80;;;;;;;2.46;100.00;102498.78;5260534;28;20497;-76
2022/03/28 03:18:30;;;;;;;62.22;20.02;;;;;;;2.41;100.00;102503.44;5267453;28;20498;-76
2022/03/28 03:21:01;;;;;;;46.83;15.38;;;;;;;2.23;100.00;102499.88;5266915;28;20115;-76
2022/03/28 03:23:31;;;;;;;37.83;14.40;;;;;;;2.12;100.00;102498.66;5267565;28;20035;-76
2022/03/28 03:26:02;;;;;;;41.05;15.52;;;;;;;2.01;100.00;102493.88;5266788;28;20020;-76
2022/03/28 03:28:32;;;;;;;42.80;16.23;;;;;;;1.97;100.00;102497.59;5249317;28;20024;-76
2022/03/28 03:31:03;;;;;;;42.50;15.95;;;;;;;2.00;100.00;102497.41;5266532;28;20080;-75
2022/03/28 03:33:33;;;;;;;43.17;16.52;;;;;;;2.04;100.00;102499.00;5267172;28;20035;-76
2022/03/28 03:36:06;;;;;;;42.53;14.65;;;;;;;2.08;100.00;102498.78;5266677;28;20519;-77
2022/03/28 03:38:36;;;;;;;41.63;14.95;;;;;;;2.11;100.00;102497.81;5267101;28;20058;-77
2022/03/28 03:41:07;;;;;;;39.15;15.02;;;;;;;2.07;100.00;102483.00;5253224;28;20077;-76
2022/03/28 03:43:37;;;;;;;38.97;15.60;;;;;;;2.00;100.00;102487.69;5266652;28;20024;-76
2022/03/28 03:46:08;;;;;;;49.42;17.00;;;;;;;2.01;100.00;102478.00;5266303;28;20020;-76
2022/03/28 03:48:39;;;;;;;39.83;15.07;;;;;;;2.05;100.00;102484.84;5267227;28;20020;-76
2022/03/28 03:51:09;;;;;;;43.13;15.25;;;;;;;2.05;100.00;102482.19;5267084;28;20020;-76
2022/03/28 03:53:40;;;;;;;49.50;16.92;;;;;;;2.05;100.00;102480.38;5266880;28;20032;-77
2022/03/28 03:56:10;;;;;;;47.67;15.73;;;;;;;2.19;100.00;102477.09;5266247;28;20605;-78
2022/03/28 03:58:41;;;;;;;41.45;15.88;;;;;;;2.17;100.00;102478.13;5250573;28;20401;-76
2022/03/28 04:01:11;;;;;;;36.88;15.35;;;;;;;2.05;100.00;102476.88;5266690;28;20035;-77
2022/03/28 04:03:41;;;;;;;37.30;14.25;;;;;;;1.94;100.00;102484.47;5266652;28;20069;-77
2022/03/28 04:06:12;;;;;;;41.72;15.52;;;;;;;1.87;100.00;102475.97;5266426;28;20031;-77
2022/03/28 04:08:43;;;;;;;40.70;15.77;;;;;;;1.86;100.00;102478.66;5266406;28;20174;-77
2022/03/28 04:11:13;;;;;;;45.78;18.15;;;;;;;1.85;100.00;102472.50;5267371;28;20013;-77
2022/03/28 04:13:44;;;;;;;43.63;15.82;;;;;;;1.80;100.00;102479.81;5266705;28;20471;-77
2022/03/28 04:16:14;;;;;;;43.00;15.57;;;;;;;1.73;100.00;102481.88;5259678;28;20048;-77
2022/03/28 04:18:45;;;;;;;44.17;16.20;;;;;;;1.64;100.00;102484.94;5266614;28;20439;-77
2022/03/28 04:21:15;;;;;;;42.13;16.92;;;;;;;1.59;100.00;102480.78;5266009;28;20024;-78
2022/03/28 04:23:46;;;;;;;52.28;17.50;;;;;;;1.57;100.00;102472.06;5266807;28;20026;-77
2022/03/28 04:26:16;;;;;;;52.10;18.20;;;;;;;1.53;100.00;102473.97;5248060;28;20067;-77
2022/03/28 04:28:46;;;;;;;54.33;17.75;;;;;;;1.51;100.00;102463.47;5266456;28;20024;-77
2022/03/28 04:31:17;;;;;;;51.55;18.02;;;;;;;1.52;100.00;102462.53;5266244;28;20024;-77
2022/03/28 04:33:47;;;;;;;45.20;18.27;;;;;;;1.53;100.00;102464.25;5266235;28;20024;-77
2022/03/28 04:36:18;;;;;;;48.38;17.05;;;;;;;1.52;100.00;102467.84;5265583;28;20099;-77
2022/03/28 04:38:48;;;;;;;36.08;14.23;;;;;;;1.49;100.00;102467.09;5266191;28;20024;-77
2022/03/28 04:41:19;;;;;;;40.08;14.10;;;;;;;1.47;100.00;102467.19;5252813;28;20063;-77
2022/03/28 04:43:49;;;;;;;44.80;16.02;;;;;;;1.49;100.00;102457.38;5267065;28;20020;-77
2022/03/28 04:46:20;;;;;;;40.95;15.77;;;;;;;1.48;100.00;102460.97;5269680;28;20089;-77
2022/03/28 04:48:50;;;;;;;42.25;16.63;;;;;;;1.46;100.00;102451.38;5270467;28;20024;-77
2022/03/28 04:51:21;;;;;;;41.55;16.70;;;;;;;1.44;100.00;102450.56;5270388;28;20111;-77
2022/03/28 04:53:52;;;;;;;48.83;18.23;;;;;;;1.44;100.00;102440.84;5270450;28;20021;-77
2022/03/28 04:56:22;;;;;;;58.10;20.48;;;;;;;1.46;100.00;102440.81;5269722;28;20024;-77
2022/03/28 04:58:53;;;;;;;45.03;18.20;;;;;;;1.47;100.00;102432.78;5270133;28;20055;-76
2022/03/28 05:01:23;;;;;;;50.28;19.48;;;;;;;1.45;100.00;102439.91;5270641;28;20016;-78
2022/03/28 05:03:53;;;;;;;39.65;15.90;;;;;;;1.43;100.00;102438.28;5270990;28;20412;-79
2022/03/28 05:06:24;;;;;;;53.60;18.40;;;;;;;1.47;100.00;102445.16;5269557;28;20032;-76
2022/03/28 05:08:54;;;;;;;64.28;21.10;;;;;;;1.52;100.00;102448.47;5270137;28;20552;-76
2022/03/28 05:11:25;;;;;;;58.67;19.27;;;;;;;1.52;100.00;102443.16;5251832;28;20070;-76
2022/03/28 05:13:58;;;;;;;47.90;18.95;;;;;;;1.44;100.00;102446.16;5268205;28;20028;-80
2022/03/28 05:16:29;;;;;;;55.08;20.48;;;;;;;1.38;100.00;102443.78;5265646;28;20020;-79
2022/03/28 05:18:59;;;;;;;55.30;22.60;;;;;;;1.41;100.00;102453.38;5269882;28;20035;-79
2022/03/28 05:21:30;;;;;;;54.50;21.15;;;;;;;1.39;100.00;102450.78;5269512;28;20028;-79
2022/03/28 05:24:00;;;;;;;57.22;20.52;;;;;;;1.34;100.00;102449.28;5269939;28;20028;-78
2022/03/28 05:26:31;;;;;;;54.88;20.40;;;;;;;1.34;100.00;102444.84;5251645;28;20035;-79
2022/03/28 05:29:01;;;;;;;50.95;20.40;;;;;;;1.29;100.00;102449.47;5269969;28;20431;-78
2022/03/28 05:31:32;;;;;;;50.33;17.95;;;;;;;1.25;100.00;102453.16;5269215;28;20108;-78
2022/03/28 05:34:02;;;;;;;46.50;18.77;;;;;;;1.16;100.00;102454.44;5252372;28;20024;-75
2022/03/28 05:36:33;;;;;;;53.00;19.52;;;;;;;1.10;100.00;102452.03;5269831;28;20099;-77
2022/03/28 05:39:03;;;;;;;58.83;20.67;;;;;;;1.09;100.00;102460.06;5268527;28;20110;-77
2022/03/28 05:41:35;;;;;;;64.38;21.17;;;;;;;1.10;100.00;102452.03;5258067;28;20107;-75
2022/03/28 05:44:06;;;;;;;59.53;22.38;;;;;;;1.16;100.00;102451.81;5268995;28;20499;-75
2022/03/28 05:46:36;;;;;;;60.70;21.73;;;;;;;1.21;100.00;102454.25;5269630;28;20027;-75
2022/03/28 05:49:07;;;;;;;60.10;21.02;;;;;;;1.24;100.00;102449.66;5269229;28;20543;-74
2022/03/28 05:51:37;;;;;;;61.33;20.92;;;;;;;1.27;100.00;102444.25;5252586;28;20560;-74
2022/03/28 05:54:08;;;;;;;41.30;16.42;;;;;;;1.39;100.00;102447.28;5264016;28;20020;-80
2022/03/28 05:56:38;;;;;;;59.53;19.67;;;;;;;1.46;100.00;102448.75;5268756;28;20391;-76
2022/03/28 05:59:09;;;;;;;52.53;19.17;;;;;;;1.46;100.00;102446.09;5266821;28;20480;-76
2022/03/28 06:01:40;;;;;;;46.55;18.30;;;;;;;1.44;100.00;102432.91;5268115;28;20031;-77
2022/03/28 06:04:10;;;;;;;53.50;17.80;;;;;;;1.49;100.00;102430.94;5267723;28;20051;-77
2022/03/28 06:06:41;;;;;;;48.45;17.23;;;;;;;1.58;100.00;102436.75;5268339;28;20032;-76
2022/03/28 06:09:11;;;;;;;41.15;15.55;;;;;;;1.65;100.00;102441.66;5268085;28;20103;-77
2022/03/28 06:11:42;;;;;;;50.75;18.17;;;;;;;1.73;100.00;102446.63;5249819;28;20032;-77
2022/03/28 06:14:12;;;;;;;45.40;16.75;;;;;;;1.86;100.00;102455.72;5263276;28;20058;-77
2022/03/28 06:16:43;;;;;;;50.85;19.00;;;;;;;2.34;100.00;102455.19;5267498;28;20024;-77
2022/03/28 06:19:13;;;;;;;69.50;23.85;;;;;;;2.80;100.00;102455.56;5250256;28;20115;-77
2022/03/28 06:21:43;;;;;;;62.50;24.45;;;;;;;3.20;100.00;102456.19;5249765;28;20020;-77
2022/03/28 06:24:14;;;;;;;52.20;21.17;;;;;;;3.61;100.00;102447.84;5249518;28;20028;-77
2022/03/28 06:26:44;;;;;;;55.80;21.92;;;;;;;4.06;100.00;102448.94;5268132;28;20491;-77
2022/03/28 06:29:15;;;;;;;46.60;16.23;;;;;;;4.80;100.00;102448.28;5268270;28;20036;-76
2022/03/28 06:31:47;;;;;;;37.88;15.43;;;;;;;5.03;100.00;102446.94;5267786;28;20038;-77
2022/03/28 06:34:17;;;;;;;46.53;15.77;;;;;;;5.12;100.00;102447.25;5267444;28;20028;-77
2022/03/28 06:36:48;;;;;;;42.42;16.27;;;;;;;5.33;100.00;102454.88;5267705;28;20085;-77
2022/03/28 06:39:18;;;;;;;41.28;17.52;;;;;;;5.58;100.00;102440.91;5262303;28;20079;-78
2022/03/28 06:41:49;;;;;;;40.88;15.13;;;;;;;5.90;100.00;102447.72;5245126;28;20028;-78
2022/03/28 06:44:19;;;;;;;43.92;16.33;;;;;;;6.15;100.00;102451.53;5264532;28;20122;-78
2022/03/28 06:46:50;;;;;;;31.65;15.13;;;;;;;6.28;100.00;102452.47;5248863;28;20050;-78
2022/03/28 06:49:20;;;;;;;34.60;16.15;;;;;;;6.48;100.00;102445.84;5248386;28;20089;-77
2022/03/28 06:51:51;;;;;;;32.90;15.57;;;;;;;6.58;100.00;102440.75;5266356;28;20030;-79
2022/03/28 06:54:22;;;;;;;39.72;15.52;;;;;;;6.75;100.00;102451.16;5266215;28;20065;-78
2022/03/28 06:56:52;;;;;;;41.13;15.27;;;;;;;6.88;100.00;102444.03;5266846;28;20047;-78
2022/03/28 06:59:23;;;;;;;43.83;16.85;;;;;;;7.11;100.00;102444.28;5268369;28;20043;-81
2022/03/28 07:01:54;;;;;;;52.05;18.73;;;;;;;7.35;100.00;102431.91;5250498;28;20031;-81
2022/03/28 07:04:25;;;;;;;51.00;19.48;;;;;;;7.64;100.00;102435.22;5250455;28;20460;-81
2022/03/28 07:06:56;;;;;;;48.20;18.27;;;;;;;8.03;100.00;102436.88;5267655;28;20474;-81
2022/03/28 07:09:26;;;;;;;42.63;17.15;;;;;;;8.28;100.00;102435.94;5268994;28;20016;-81
2022/03/28 07:11:58;;;;;;;37.17;16.48;;;;;;;8.65;100.00;102427.88;5268698;28;20032;-82
2022/03/28 07:14:28;;;;;;;35.50;15.55;;;;;;;8.95;100.00;102419.34;5261921;28;20054;-81
2022/03/28 07:16:59;;;;;;;35.50;17.02;;;;;;;9.08;100.00;102430.78;5269124;28;20023;-81
2022/03/28 07:19:30;;;;;;;40.03;17.77;;;;;;;9.34;100.00;102426.13;5273080;28;20020;-81
2022/03/28 07:22:01;;;;;;;45.40;19.40;;;;;;;9.46;100.00;102423.44;5252843;28;20035;-81
2022/03/28 07:24:32;;;;;;;45.35;18.55;;;;;;;10.13;100.00;102423.41;5251379;28;20077;-81
2022/03/28 07:27:02;;;;;;;44.28;17.88;;;;;;;10.29;100.00;102414.97;5272817;28;20024;-80
2022/03/28 07:29:33;;;;;;;42.55;17.42;;;;;;;10.54;100.00;102417.34;5256472;28;20042;-81
2022/03/28 07:32:04;;;;;;;45.47;18.80;;;;;;;10.63;100.00;102413.88;5269919;28;20023;-80
2022/03/28 07:34:35;;;;;;;46.70;19.00;;;;;;;10.86;100.00;102405.75;5250156;28;20074;-79
2022/03/28 07:37:06;;;;;;;41.92;18.58;;;;;;;11.15;100.00;102412.16;5268645;28;20134;-80
2022/03/28 07:39:38;;;;;;;40.45;16.83;;;;;;;11.46;100.00;102408.66;5261665;28;20571;-80
2022/03/28 07:42:08;;;;;;;57.13;17.73;;;;;;;11.60;100.00;102401.06;5261628;28;20030;-80
2022/03/28 07:44:41;;;;;;;46.90;16.88;;;;;;;11.60;100.00;102409.16;5250044;28;20467;-79
2022/03/28 07:47:12;;;;;;;40.00;16.48;;;;;;;11.91;100.00;102410.00;5268129;28;20035;-80
2022/03/28 07:49:42;;;;;;;44.60;16.75;;;;;;;12.29;100.00;102407.50;5268304;28;20047;-80
2022/03/28 07:52:13;;;;;;;42.00;17.17;;;;;;;12.06;100.00;102407.75;5268174;28;20038;-80
2022/03/28 07:54:44;;;;;;;39.35;16.90;;;;;;;12.42;100.00;102398.19;5250175;28;20056;-80
2022/03/28 07:57:16;;;;;;;41.20;17.55;;;;;;;12.33;100.00;102399.03;5268662;28;20515;-80
2022/03/28 07:59:48;;;;;;;37.55;15.77;;;;;;;12.53;100.00;102399.88;5250255;28;20023;-79
2022/03/28 08:02:18;;;;;;;48.05;19.58;;;;;;;12.62;100.00;102398.19;5267719;28;20475;-79
2022/03/28 08:04:49;;;;;;;39.97;19.05;;;;;;;12.70;100.00;102393.81;5267608;28;20069;-80
2022/03/28 08:07:20;;;;;;;49.05;21.38;;;;;;;12.80;100.00;102376.75;5249190;28;20103;-80
2022/03/28 08:09:51;;;;;;;44.35;19.80;;;;;;;12.96;100.00;102387.81;5266975;28;20115;-79
2022/03/28 08:12:22;;;;;;;50.22;24.58;;;;;;;13.31;100.00;102380.97;5249669;28;20402;-79
2022/03/28 08:14:52;;;;;;;48.40;22.52;;;;;;;13.74;100.00;102391.13;5260498;28;20028;-80
2022/03/28 08:17:23;;;;;;;35.70;17.90;;;;;;;14.23;100.00;102380.91;5267447;28;20058;-80
2022/03/28 08:19:54;;;;;;;44.47;20.23;;;;;;;14.08;100.00;102382.44;5232815;28;20058;-81
2022/03/28 08:22:24;;;;;;;47.75;23.25;;;;;;;13.93;100.00;102377.53;5267671;28;20484;-81
2022/03/28 08:24:55;;;;;;;41.13;21.38;;;;;;;14.25;100.00;102376.19;5266497;28;20085;-80
2022/03/28 08:27:25;;;;;;;40.05;19.90;;;;;;;14.50;100.00;102378.16;5249340;28;20035;-80
2022/03/28 08:29:56;;;;;;;41.67;20.65;;;;;;;14.60;100.00;102372.66;5249525;28;20031;-80
2022/03/28 08:32:26;;;;;;;46.85;21.40;;;;;;;15.09;100.00;102372.19;5249628;28;20051;-80
2022/03/28 08:34:57;;;;;;;44.83;21.90;;;;;;;14.99;100.00;102365.03;5267171;28;20035;-80
2022/03/28 08:37:27;;;;;;;42.78;19.63;;;;;;;15.43;100.00;102366.84;5267194;28;20032;-80
2022/03/28 08:39:58;;;;;;;43.33;20.85;;;;;;;16.03;100.00;102364.06;5240041;28;20452;-80
2022/03/28 08:42:28;;;;;;;39.78;20.42;;;;;;;15.71;100.00;102359.38;5262913;28;20028;-81
2022/03/28 08:44:59;;;;;;;42.33;20.58;;;;;;;15.57;100.00;102358.13;5266819;28;20028;-80
2022/03/28 08:47:30;;;;;;;37.92;18.77;;;;;;;15.98;100.00;102359.13;5267279;28;20020;-80
2022/03/28 08:50:01;;;;;;;36.30;18.13;;;;;;;16.73;100.00;102348.25;5267404;28;20035;-80
2022/03/28 08:52:31;;;;;;;41.40;19.67;;;;;;;16.94;100.00;102342.28;5267414;28;20031;-80
2022/03/28 08:55:02;;;;;;;46.00;18.40;;;;;;;17.23;98.74;102357.13;5267357;28;20855;-81
2022/03/28 08:57:32;;;;;;;35.55;16.73;;;;;;;17.02;99.68;102355.84;5251075;28;20102;-78
2022/03/28 09:00:05;;;;;;;34.95;18.00;;;;;;;16.97;100.00;102352.78;5264943;28;20506;-79
2022/03/28 09:02:37;;;;;;;41.45;20.48;;;;;;;16.58;100.00;102358.03;5268344;28;20390;-80
2022/03/28 09:05:09;;;;;;;35.15;18.30;;;;;;;16.47;100.00;102355.66;5266439;28;20103;-80
2022/03/28 09:07:42;;;;;;;39.47;20.42;;;;;;;16.11;100.00;102352.38;5265316;28;20107;-81
2022/03/28 09:10:17;;;;;;;37.53;17.60;;;;;;;17.24;97.63;102351.53;5247481;28;20124;-81
2022/03/28 09:13:27;;;;;;;35.90;18.10;;;;;;;17.96;87.45;102347.88;5228920;28;20059;-81
2022/03/28 09:19:17;;;;;;;37.17;18.15;;;;;;;17.55;97.00;102339.91;5263939;28;20067;-81
2022/03/28 09:21:50;;;;;;;33.78;17.45;;;;;;;17.86;89.02;102338.06;5247794;28;20137;-80
2022/03/28 09:24:31;;;;;;;41.17;21.07;;;;;;;17.46;99.13;102335.53;5221812;28;20036;-79
2022/03/28 09:27:20;;;;;;;36.10;18.75;;;;;;;17.81;92.97;102331.47;5237873;28;20129;-79
2022/03/28 09:30:08;;;;;;;37.47;19.35;;;;;;;18.05;91.11;102325.06;5243045;28;20075;-80
2022/03/28 09:32:41;;;;;;;45.60;19.67;;;;;;;18.82;81.34;102333.97;5245483;28;20476;-80
2022/03/28 09:35:28;;;;;;;42.47;19.85;;;;;;;18.54;79.14;102330.16;5228521;28;20065;-80
2022/03/28 09:38:18;;;;;;;39.97;19.58;;;;;;;18.33;84.37;102323.53;5245244;28;20144;-80
2022/03/28 09:40:51;;;;;;;35.55;20.20;;;;;;;18.29;83.59;102318.63;5218573;28;20029;-80
2022/03/28 09:43:29;;;;;;;37.47;19.90;;;;;;;18.46;85.82;102312.03;5247072;28;20218;-80
2022/03/28 09:45:59;;;;;;;41.42;21.15;;;;;;;18.03;89.44;102303.53;5246467;28;20024;-79
2022/03/28 09:48:32;;;;;;;40.80;19.83;;;;;;;18.67;85.11;102308.59;5266782;28;20036;-80
2022/03/28 09:51:05;;;;;;;39.08;20.10;;;;;;;18.22;100.00;102302.19;5269910;28;20024;-80
2022/03/28 09:53:38;;;;;;;36.70;19.75;;;;;;;18.56;97.33;102298.19;5270540;28;20326;-81
2022/03/28 09:56:11;;;;;;;37.85;19.83;;;;;;;19.20;81.00;102297.72;5269530;28;20024;-80
2022/03/28 09:58:46;;;;;;;35.45;19.00;;;;;;;18.88;84.78;102302.50;5270497;28;20024;-80
2022/03/28 10:01:19;;;;;;;43.08;19.90;;;;;;;18.44;97.40;102296.94;5252062;28;20023;-80
2022/03/28 10:03:54;;;;;;;38.00;19.02;;;;;;;18.93;84.35;102296.50;5270440;28;20028;-80
2022/03/28 10:06:24;;;;;;;42.08;19.65;;;;;;;18.89;84.57;102287.88;5250737;28;20453;-80
2022/03/28 10:08:56;;;;;;;35.03;18.17;;;;;;;18.80;77.33;102289.81;5238933;28;20028;-80
2022/03/28 10:11:27;;;;;;;36.78;18.48;;;;;;;18.51;80.24;102284.31;5269612;28;20024;-79
2022/03/28 10:13:59;;;;;;;42.25;19.88;;;;;;;18.11;87.81;102284.44;5267505;28;20101;-80
2022/03/28 10:16:29;;;;;;;36.67;19.17;;;;;;;18.13;87.58;102286.16;5267717;28;20531;-80
2022/03/28 10:19:02;;;;;;;35.22;18.98;;;;;;;18.16;81.30;102281.19;5269897;28;20039;-80
2022/03/28 10:21:36;;;;;;;44.13;19.25;;;;;;;17.87;81.29;102284.63;5269394;28;20016;-80
2022/03/28 10:24:25;;;;;;;40.10;18.55;;;;;;;17.56;84.16;102279.16;5250975;28;20024;-80
2022/03/28 10:26:58;;;;;;;38.38;19.52;;;;;;;17.51;96.14;102276.16;5269879;28;20575;-80
2022/03/28 10:29:47;;;;;;;41.25;18.92;;;;;;;17.44;83.58;102269.75;5269723;28;20017;-80
2022/03/28 10:32:21;;;;;;;41.53;20.35;;;;;;;17.45;92.46;102269.56;5251374;28;20039;-80
2022/03/28 10:34:56;;;;;;;36.15;17.80;;;;;;;17.54;93.15;102264.94;5269026;28;20035;-80
2022/03/28 10:40:33;;;;;;;46.58;18.80;;;;;;;17.81;100.00;102255.47;5255168;28;20020;-79
2022/03/28 10:43:09;;;;;;;39.83;18.10;;;;;;;18.11;89.70;102259.16;5271376;28;20433;-80
2022/03/28 10:45:56;;;;;;;39.20;17.02;;;;;;;18.23;85.33;102246.88;5255557;28;20044;-80
2022/03/28 10:48:39;;;;;;;39.75;16.40;;;;;;;18.25;89.14;102250.22;5274340;28;20039;-79
2022/03/28 10:51:11;;;;;;;33.28;16.45;;;;;;;18.46;82.83;102254.13;5273494;28;20020;-79
2022/03/28 10:53:46;;;;;;;32.85;16.70;;;;;;;18.30;87.41;102247.81;5273212;28;20028;-79
2022/03/28 10:56:20;;;;;;;34.50;16.57;;;;;;;18.51;82.61;102243.53;5263204;28;20070;-80
2022/03/28 10:58:53;;;;;;;29.83;15.18;;;;;;;18.79;68.70;102249.25;5256511;28;20270;-80
2022/03/28 11:01:44;;;;;;;34.88;15.85;;;;;;;18.76;70.23;102238.72;5255451;28;20093;-80
2022/03/28 11:04:15;;;;;;;36.63;16.88;;;;;;;18.76;75.04;102242.28;5255405;28;20032;-80
2022/03/28 11:07:03;;;;;;;33.22;16.75;;;;;;;18.71;72.68;102236.56;5274754;28;20034;-80
2022/03/28 11:09:54;;;;;;;35.55;18.23;;;;;;;18.64;76.23;102236.44;5256174;28;20092;-80
2022/03/28 11:12:40;;;;;;;32.47;15.05;;;;;;;18.62;71.17;102226.78;5273428;28;20028;-79
2022/03/28 11:15:26;;;;;;;26.75;12.20;;;;;;;18.73;67.48;102226.38;5247393;28;20036;-79
2022/03/28 11:18:03;;;;;;;26.85;13.55;;;;;;;18.79;72.42;102228.34;5272848;28;20052;-79
2022/03/28 11:20:45;;;;;;;37.20;17.83;;;;;;;18.72;70.56;102227.38;5254633;28;20395;-79
2022/03/28 11:23:18;;;;;;;32.03;16.75;;;;;;;18.86;68.33;102221.09;5254882;28;20549;-79
2022/03/28 11:26:08;;;;;;;30.73;15.75;;;;;;;18.89;66.01;102215.31;5254492;28;20091;-79
2022/03/28 11:28:39;;;;;;;36.15;15.50;;;;;;;18.86;66.67;102218.38;5272695;28;20049;-79
2022/03/28 11:31:14;;;;;;;35.95;15.73;;;;;;;18.82;66.84;102214.34;5273322;28;20024;-79
2022/03/28 11:33:47;;;;;;;35.57;16.67;;;;;;;18.77;67.41;102214.06;5254794;28;20051;-79
2022/03/28 11:36:20;;;;;;;35.47;17.17;;;;;;;18.76;67.45;102212.38;5271890;28;20297;-79
2022/03/28 11:38:52;;;;;;;32.10;15.90;;;;;;;18.74;71.51;102213.63;5272096;28;20019;-82